Aérodrome :
LOGIN :

S'inscrire | Disclaimer

   EN    FR    IT 

 










Légende :    VFR   VFR Marginal   IFR   IFR Intensif   IFR Très Intensif
Visi : 
Plafond : 
>= 8 km
>= 3000ft
5 à 8 km
1000 à 3000 ft
1500m à 5 km
500 à 1000 ft
800 à 1500m
200 à 500 ft
< 800m
< 200 ft
Symboles :   Orages  Brouillard  Fortes neiges  Fortes précipitations  Vent > 20 kt
SIGMETs :   Divers  Orages  Givrage  Turbulence  Onde Orograph.  Cendres Volcan.






- Altitude de l'aérodrome : 230 ft


ETHB - Buckeburg Army

DERNIER METAR :
  • 211320Z 16004KT 9999 FEW004 BKN010 06/04 Q1008 GRN GRN TEMPO YLO

METARs EXPIRÉS :
  • 211220Z 13001KT 8000 SCT004 BKN008 05/05 Q1009 GRN GRN TEMPO YLO
  • 211143Z 06004KT 6000 BKN003 BKN008 05/04 Q1010 YLO GRN TEMPO YLO
  • 211120Z 05004KT 6000 SCT003 BKN008 BKN017 05/04 Q1010 GRN GRN TEMPO YLO
  • 211045Z 06002KT 5000 VCFG BR SCT002 BKN008 OVC017 05/04 Q1010 GRN GRN TEMPO RED

TAF TAF ETHB
Valide du 21 à 12h jusqu'au 21 à 21h UTC


211105Z 2112/2121 06005KT 5000 BR SCT004 BKN008
TEMPO 2112/2119 03004KT 2000 -RADZ BKN003
BECMG 2119/2121 16005KT 7000 NSW SCT008 BKN030



MET'MAP, la Météo Aéronautique d'un coup d'oeil ! - Copyright ORBIFLY Décembre 2007 - Disclaimer

ORBIFLY MET'MAP TEAM :

Programmation & Développement : Alexandra Zaïnal
Conception & Développement : Baudouin d'Aumeries
Co-Programmation & Développement : Marc-Olivier Méhu
Soutien technique & logistique : Manuel Goepfert

Contact : metmap@orbifly.com




SOURCES & CREDITS :

   NOAA